Time;durP1;ratioP1;P1;durP2;ratioP2;P2;SDS_P1;SDS_P2;PMS_P1;PMS_P2;Temp;Humidity;BMP_temperature;BMP_pressure;BME280_temperature;BME280_humidity;BME280_pressure;Samples;Min_cycle;Max_cycle;Signal;HPM_P1;HPM_P2
2021/10/03 00:01:59;;;;;;;2.00;1.80;;;;;;;19.34;54.79;98001.28;5048989;28;42897;-80
2021/10/03 00:04:29;;;;;;;1.30;1.00;;;;;;;19.37;54.82;97997.41;5030931;28;41483;-79
2021/10/03 00:06:57;;;;;;;1.97;1.50;;;;;;;19.39;54.64;97990.03;5048252;28;40654;-77
2021/10/03 00:09:26;;;;;;;1.80;1.43;;;;;;;19.42;54.30;97995.03;5047888;28;42733;-76
2021/10/03 00:11:54;;;;;;;2.50;1.53;;;;;;;19.40;54.13;97986.34;5031751;28;41843;-80
2021/10/03 00:14:23;;;;;;;2.13;1.70;;;;;;;19.45;54.21;97989.31;5048449;28;42365;-80
2021/10/03 00:16:53;;;;;;;1.83;1.73;;;;;;;19.47;54.27;97998.03;5048004;28;38840;-79
2021/10/03 00:19:23;;;;;;;2.07;1.50;;;;;;;19.51;53.94;97996.72;5048000;28;43453;-78
2021/10/03 00:21:51;;;;;;;1.37;1.17;;;;;;;19.52;53.82;97998.41;5042178;28;41741;-83
2021/10/03 00:24:19;;;;;;;1.23;1.10;;;;;;;19.52;54.13;98000.25;5040074;28;41502;-78
2021/10/03 00:26:47;;;;;;;2.00;1.83;;;;;;;19.53;53.60;97991.19;5028482;28;40262;-79
2021/10/03 00:29:17;;;;;;;1.40;1.20;;;;;;;19.54;53.68;97999.06;5028037;28;41838;-80
2021/10/03 00:31:44;;;;;;;1.83;1.73;;;;;;;19.53;53.87;97997.41;5027771;28;43610;-79
2021/10/03 00:34:12;;;;;;;1.50;1.40;;;;;;;19.51;53.63;97993.22;5028019;28;43067;-78
2021/10/03 00:36:40;;;;;;;1.93;1.27;;;;;;;19.54;53.77;98004.41;5011767;28;40256;-80
2021/10/03 00:39:07;;;;;;;1.53;1.20;;;;;;;19.54;53.52;97993.69;5027625;28;41874;-77
2021/10/03 00:41:35;;;;;;;1.63;1.17;;;;;;;19.44;53.41;97976.91;5010281;28;42033;-78
2021/10/03 00:44:04;;;;;;;2.17;1.70;;;;;;;19.56;53.04;97991.66;5027830;28;43288;-78
2021/10/03 00:46:33;;;;;;;1.50;1.40;;;;;;;19.57;53.46;97987.97;5028395;28;40050;-79
2021/10/03 00:49:00;;;;;;;1.70;1.40;;;;;;;19.59;53.21;97991.31;5010768;28;40260;-80
2021/10/03 00:51:27;;;;;;;2.73;1.60;;;;;;;19.56;53.15;97980.91;5027154;28;41705;-81
2021/10/03 00:53:55;;;;;;;2.20;1.40;;;;;;;19.56;53.23;97980.09;5027683;28;41298;-77
2021/10/03 00:56:22;;;;;;;1.50;1.40;;;;;;;19.59;53.28;97983.25;5029167;28;40051;-80
2021/10/03 00:58:50;;;;;;;1.77;1.53;;;;;;;19.47;53.10;97960.44;5028564;28;41634;-81
2021/10/03 01:01:21;;;;;;;1.97;1.37;;;;;;;19.59;53.19;97975.22;5027948;28;41567;-78
2021/10/03 01:03:49;;;;;;;2.30;1.30;;;;;;;19.58;52.96;97978.91;5010941;28;42087;-80
2021/10/03 01:06:16;;;;;;;1.50;1.40;;;;;;;19.55;53.42;97973.88;5027432;28;39833;-80
2021/10/03 01:08:44;;;;;;;1.27;1.00;;;;;;;19.56;53.44;97970.19;5027600;28;41764;-77
2021/10/03 01:11:12;;;;;;;1.63;1.40;;;;;;;19.54;53.52;97977.56;5011538;28;42038;-76
2021/10/03 01:13:39;;;;;;;1.73;1.50;;;;;;;19.50;53.26;97970.88;5028844;28;42315;-79
2021/10/03 01:16:07;;;;;;;1.37;1.13;;;;;;;19.51;53.60;97969.03;5029092;28;39707;-80
2021/10/03 01:18:36;;;;;;;2.63;1.87;;;;;;;19.50;53.25;97964.69;5027285;28;41684;-78
2021/10/03 01:21:07;;;;;;;1.50;1.40;;;;;;;19.31;53.66;97939.03;5027142;28;43857;-80
2021/10/03 01:23:34;;;;;;;1.80;1.57;;;;;;;19.45;53.59;97958.94;5011081;28;41168;-80
2021/10/03 01:26:02;;;;;;;2.60;1.50;;;;;;;19.43;53.57;97961.81;5040773;28;41974;-79
2021/10/03 01:28:30;;;;;;;1.43;1.10;;;;;;;19.43;53.28;97958.28;5030919;28;40649;-80
2021/10/03 01:30:58;;;;;;;1.33;1.23;;;;;;;19.44;52.95;97960.78;5047575;28;43102;-79
2021/10/03 01:33:27;;;;;;;1.90;1.20;;;;;;;19.43;53.00;97959.13;5029957;28;42666;-78
2021/10/03 01:35:55;;;;;;;1.97;1.40;;;;;;;19.42;53.13;97952.06;5052141;28;40303;-78
2021/10/03 01:38:25;;;;;;;2.23;1.70;;;;;;;19.42;53.34;97948.53;5033938;28;42048;-80
2021/10/03 01:40:52;;;;;;;2.07;1.60;;;;;;;19.37;53.00;97944.56;5050665;28;41712;-78
2021/10/03 01:43:20;;;;;;;3.37;1.50;;;;;;;19.40;52.98;97942.53;5066850;28;42396;-80
2021/10/03 01:45:48;;;;;;;2.20;1.50;;;;;;;19.40;52.90;97943.38;5034138;28;39193;-81
2021/10/03 01:48:20;;;;;;;1.23;1.13;;;;;;;19.40;52.72;97931.78;5051094;28;42624;-80
2021/10/03 01:50:53;;;;;;;1.30;1.20;;;;;;;19.40;52.79;97935.31;5033135;28;41952;-79
2021/10/03 01:53:24;;;;;;;1.77;1.30;;;;;;;19.41;52.88;97934.28;5033069;28;41118;-78
2021/10/03 01:55:54;;;;;;;1.70;1.57;;;;;;;19.33;52.57;97926.25;5051065;28;39922;-79
2021/10/03 01:58:24;;;;;;;1.23;1.13;;;;;;;19.41;52.68;97938.84;5033643;28;42149;-77
2021/10/03 02:00:53;;;;;;;2.37;1.30;;;;;;;19.39;53.06;97928.28;5050904;28;43208;-80
2021/10/03 02:03:21;;;;;;;1.40;1.30;;;;;;;19.40;52.68;97943.38;5049204;28;41641;-80
2021/10/03 02:05:49;;;;;;;1.50;1.40;;;;;;;19.38;52.74;97934.66;5049578;28;38938;-80
2021/10/03 02:08:18;;;;;;;1.60;1.50;;;;;;;19.37;52.36;97922.22;5034057;28;40818;-82
2021/10/03 02:10:48;;;;;;;1.43;1.17;;;;;;;19.37;52.57;97922.22;5034067;28;41880;-78
2021/10/03 02:13:19;;;;;;;1.23;1.13;;;;;;;19.38;52.26;97935.50;5049785;28;42120;-78
2021/10/03 02:15:48;;;;;;;1.30;1.20;;;;;;;19.29;52.12;97916.88;5033739;28;41035;-79
2021/10/03 02:18:20;;;;;;;1.30;1.03;;;;;;;19.33;51.98;97923.59;5032830;28;41721;-78
2021/10/03 02:20:52;;;;;;;1.40;1.30;;;;;;;19.39;52.36;97936.31;5050829;28;43186;-77
2021/10/03 02:23:20;;;;;;;1.60;1.47;;;;;;;19.41;52.40;97928.91;5050858;28;42543;-78
2021/10/03 02:25:47;;;;;;;1.33;1.10;;;;;;;19.40;52.02;97929.94;5033341;28;38999;-81
2021/10/03 02:28:19;;;;;;;1.47;1.37;;;;;;;19.39;51.79;97928.28;5049896;28;42569;-77
2021/10/03 02:30:47;;;;;;;1.60;1.50;;;;;;;19.41;51.89;97928.91;5050973;28;43075;-79
2021/10/03 02:33:15;;;;;;;1.20;1.10;;;;;;;19.40;51.79;97927.25;5066581;28;42578;-80
2021/10/03 02:35:43;;;;;;;1.60;1.50;;;;;;;19.30;52.13;97910.50;5050090;28;40240;-77
2021/10/03 02:38:14;;;;;;;1.73;1.37;;;;;;;19.40;51.65;97923.75;5050594;28;41962;-80
2021/10/03 02:40:43;;;;;;;1.20;1.10;;;;;;;19.36;51.71;97923.25;5049592;28;42824;-78
2021/10/03 02:43:13;;;;;;;1.50;1.40;;;;;;;19.36;51.67;97925.94;5032676;28;42619;-81
2021/10/03 02:45:44;;;;;;;1.33;1.23;;;;;;;19.35;51.77;97919.72;5031928;28;38846;-82
2021/10/03 02:48:11;;;;;;;1.33;1.10;;;;;;;19.35;51.89;97924.25;5033743;28;40702;-81
2021/10/03 02:50:39;;;;;;;1.57;1.43;;;;;;;19.34;51.92;97911.84;5050090;28;43091;-77
2021/10/03 02:53:09;;;;;;;2.10;1.40;;;;;;;19.28;51.68;97913.38;5049723;28;42615;-78
2021/10/03 02:55:37;;;;;;;1.40;1.30;;;;;;;19.35;51.74;97918.88;5049261;28;40842;-79
2021/10/03 02:58:04;;;;;;;1.63;1.20;;;;;;;19.34;51.98;97911.84;5032553;28;41078;-77
2021/10/03 03:00:33;;;;;;;1.70;1.50;;;;;;;19.31;51.70;97902.28;5033066;28;41810;-80
2021/10/03 03:03:01;;;;;;;1.83;1.50;;;;;;;19.32;51.91;97897.75;5032052;28;41227;-79
2021/10/03 03:05:29;;;;;;;2.73;1.60;;;;;;;19.29;51.68;97898.09;5066588;28;40986;-80
2021/10/03 03:07:57;;;;;;;1.70;1.20;;;;;;;19.20;52.34;97878.50;5033120;28;40529;-82
2021/10/03 03:10:24;;;;;;;2.33;1.60;;;;;;;19.19;52.02;97865.25;5049166;28;43632;-79
2021/10/03 03:12:52;;;;;;;1.40;1.30;;;;;;;19.31;52.12;97886.16;5032602;28;41485;-82
2021/10/03 03:15:19;;;;;;;1.23;1.13;;;;;;;19.29;51.70;97879.28;5050321;28;39990;-80
2021/10/03 03:17:47;;;;;;;2.23;1.73;;;;;;;19.31;51.91;97885.34;5049861;28;41004;-80
2021/10/03 03:20:16;;;;;;;3.17;1.90;;;;;;;19.29;51.67;97881.97;5048961;28;42891;-79
2021/10/03 03:22:44;;;;;;;2.10;1.60;;;;;;;19.32;51.72;97879.78;5022299;28;41438;-78
2021/10/03 03:25:13;;;;;;;1.80;1.43;;;;;;;19.32;51.76;97881.63;5050269;28;40104;-78
2021/10/03 03:27:42;;;;;;;1.40;1.20;;;;;;;19.30;51.96;97873.75;5023584;28;41086;-77
2021/10/03 03:30:12;;;;;;;1.63;1.30;;;;;;;19.31;52.34;97869.22;5039372;28;43218;-79
2021/10/03 03:32:39;;;;;;;1.60;1.50;;;;;;;19.26;51.94;97876.97;5039453;28;42753;-77
2021/10/03 03:35:09;;;;;;;2.30;1.50;;;;;;;19.26;51.95;97871.63;5043028;28;40788;-78
2021/10/03 03:37:38;;;;;;;2.07;1.43;;;;;;;19.23;52.03;97871.94;5035366;28;42281;-80
2021/10/03 03:40:09;;;;;;;2.53;1.50;;;;;;;19.25;52.03;97872.63;5030272;28;44122;-79
2021/10/03 03:42:36;;;;;;;1.27;1.13;;;;;;;19.05;52.24;97844.50;5032234;28;43043;-78
2021/10/03 03:45:05;;;;;;;2.37;1.77;;;;;;;19.12;51.99;97864.28;5032376;28;39967;-79
2021/10/03 03:47:33;;;;;;;1.53;1.33;;;;;;;19.23;52.11;97872.78;5014533;28;42078;-80
2021/10/03 03:50:00;;;;;;;2.03;1.67;;;;;;;19.21;52.52;97880.19;5029498;28;43863;-81
2021/10/03 03:52:28;;;;;;;1.87;1.43;;;;;;;19.20;52.49;97877.66;5011651;28;41504;-82
2021/10/03 03:54:57;;;;;;;1.80;1.70;;;;;;;19.17;52.85;97872.63;5028408;28;41235;-77
2021/10/03 03:57:24;;;;;;;1.47;1.30;;;;;;;19.14;52.87;97873.00;5028081;28;42418;-80
2021/10/03 03:59:52;;;;;;;1.90;1.70;;;;;;;19.12;52.73;97856.22;5029011;28;42576;-80
2021/10/03 04:02:19;;;;;;;1.97;1.60;;;;;;;19.06;53.23;97854.22;5011484;28;41148;-79
2021/10/03 04:04:47;;;;;;;1.90;1.33;;;;;;;19.11;53.63;97859.94;5012412;28;38866;-80
2021/10/03 04:07:14;;;;;;;1.70;1.30;;;;;;;19.08;53.39;97862.94;5011602;28;40664;-82
2021/10/03 04:09:42;;;;;;;1.57;1.37;;;;;;;19.08;53.36;97853.06;5030388;28;42576;-79
2021/10/03 04:12:11;;;;;;;1.70;1.60;;;;;;;19.07;53.57;97846.00;5028450;28;42519;-78
2021/10/03 04:14:39;;;;;;;1.67;1.23;;;;;;;19.07;53.75;97847.84;5028720;28;39150;-84
2021/10/03 04:17:07;;;;;;;1.27;1.00;;;;;;;19.02;53.62;97854.59;5028111;28;41744;-80
2021/10/03 04:19:34;;;;;;;2.03;1.80;;;;;;;19.04;53.84;97846.34;5027788;28;43142;-84
2021/10/03 04:22:01;;;;;;;1.83;1.73;;;;;;;19.01;53.80;97850.25;5011760;28;41123;-80
2021/10/03 04:24:29;;;;;;;1.70;1.60;;;;;;;19.00;54.21;97850.41;5011621;28;38817;-80
2021/10/03 04:26:56;;;;;;;3.23;1.93;;;;;;;18.92;53.86;97845.88;5031821;28;40538;-80
2021/10/03 04:29:25;;;;;;;1.63;1.43;;;;;;;18.99;54.11;97854.94;5031170;28;41670;-78
2021/10/03 04:31:53;;;;;;;1.83;1.60;;;;;;;18.97;54.41;97846.22;5049579;28;43349;-80
2021/10/03 04:34:20;;;;;;;2.30;1.87;;;;;;;18.96;54.57;97833.81;5047985;28;39810;-80
2021/10/03 04:36:48;;;;;;;1.70;1.37;;;;;;;18.94;54.70;97840.34;5049214;28;41945;-78
2021/10/03 04:39:16;;;;;;;1.47;1.20;;;;;;;18.87;54.51;97829.50;5030798;28;42777;-80
2021/10/03 04:41:43;;;;;;;2.37;1.40;;;;;;;18.89;54.84;97845.41;5047472;28;43064;-81
2021/10/03 04:44:11;;;;;;;2.37;1.70;;;;;;;18.90;54.49;97845.25;5047950;28;40582;-80
2021/10/03 04:46:40;;;;;;;2.10;1.30;;;;;;;18.90;54.50;97842.56;5047755;28;40955;-82
2021/10/03 04:49:08;;;;;;;1.43;1.33;;;;;;;18.89;54.65;97838.22;5064193;28;43179;-80
2021/10/03 04:51:35;;;;;;;2.03;1.60;;;;;;;18.88;54.56;97831.16;5063988;28;42107;-79
2021/10/03 04:54:03;;;;;;;2.00;1.60;;;;;;;18.86;54.54;97835.88;5047629;28;39711;-79
2021/10/03 04:56:31;;;;;;;1.70;1.60;;;;;;;18.83;54.60;97833.53;5047146;28;41984;-80
2021/10/03 04:58:58;;;;;;;1.50;1.40;;;;;;;18.82;54.76;97829.16;5030919;28;42122;-81
2021/10/03 05:01:26;;;;;;;1.80;1.37;;;;;;;18.81;54.79;97830.16;5048460;28;42978;-80
2021/10/03 05:03:55;;;;;;;1.50;1.20;;;;;;;18.81;54.75;97835.53;5047629;28;39090;-82
2021/10/03 05:06:24;;;;;;;1.87;1.57;;;;;;;18.81;54.86;97832.00;5047354;28;40612;-77
2021/10/03 05:08:51;;;;;;;1.30;1.20;;;;;;;18.82;54.78;97836.38;5030692;28;42794;-81
2021/10/03 05:11:19;;;;;;;2.07;1.17;;;;;;;18.82;55.17;97845.25;5052376;28;43146;-80
2021/10/03 05:13:47;;;;;;;1.40;1.30;;;;;;;18.80;54.83;97833.84;5034387;28;38838;-83
2021/10/03 05:16:14;;;;;;;1.63;1.23;;;;;;;18.79;55.04;97837.56;5052226;28;42104;-80
2021/10/03 05:18:42;;;;;;;1.33;1.23;;;;;;;18.79;54.93;97832.19;5051724;28;43827;-78
2021/10/03 05:21:10;;;;;;;1.73;1.50;;;;;;;18.80;54.94;97836.53;5050115;28;42198;-79
2021/10/03 05:23:38;;;;;;;1.43;1.27;;;;;;;18.76;54.94;97827.19;5050897;28;38954;-77
2021/10/03 05:26:06;;;;;;;1.47;1.30;;;;;;;18.70;54.95;97806.41;5033401;28;42066;-78
2021/10/03 05:28:34;;;;;;;1.40;1.30;;;;;;;18.76;55.15;97821.81;5051482;28;42857;-80
2021/10/03 05:31:02;;;;;;;1.50;1.40;;;;;;;18.76;55.40;97819.13;5052774;28;42574;-82
2021/10/03 05:33:31;;;;;;;1.67;1.57;;;;;;;18.76;54.94;97821.81;5051315;28;40961;-79
2021/10/03 05:35:59;;;;;;;1.53;1.43;;;;;;;18.75;55.26;97822.84;5051014;28;41974;-79
2021/10/03 05:38:28;;;;;;;1.57;1.47;;;;;;;18.69;55.08;97809.25;5052041;28;43054;-81
2021/10/03 05:40:56;;;;;;;2.27;1.83;;;;;;;18.74;55.02;97806.91;5033546;28;41530;-78
2021/10/03 05:43:24;;;;;;;1.40;1.30;;;;;;;18.67;55.40;97801.38;5049928;28;40957;-76
2021/10/03 05:45:51;;;;;;;3.77;1.53;;;;;;;18.74;55.13;97826.53;5013677;28;40714;-77
2021/10/03 05:48:21;;;;;;;1.47;1.37;;;;;;;18.76;54.92;97811.09;5029841;28;43507;-78
2021/10/03 05:50:50;;;;;;;1.60;1.37;;;;;;;18.76;55.03;97826.34;5013433;28;41603;-78
2021/10/03 05:53:17;;;;;;;1.87;1.77;;;;;;;18.78;55.03;97825.19;5030194;28;40278;-79
2021/10/03 05:55:47;;;;;;;3.07;1.90;;;;;;;18.74;54.80;97801.53;5029648;28;40599;-77
2021/10/03 05:58:15;;;;;;;1.87;1.30;;;;;;;18.82;54.46;97812.22;5030173;28;42676;-78
2021/10/03 06:00:43;;;;;;;1.40;1.20;;;;;;;18.86;54.76;97819.78;5013475;28;41186;-81
2021/10/03 06:03:11;;;;;;;1.47;1.20;;;;;;;18.88;54.37;97817.75;5046696;28;40720;-79
2021/10/03 06:05:38;;;;;;;1.50;1.37;;;;;;;18.81;54.37;97800.66;5030252;28;42612;-80
2021/10/03 06:08:06;;;;;;;1.80;1.63;;;;;;;18.93;54.41;97818.06;5031036;28;43186;-78
2021/10/03 06:10:33;;;;;;;1.63;1.40;;;;;;;18.94;54.50;97829.63;5032994;28;41157;-81
2021/10/03 06:13:04;;;;;;;2.37;1.50;;;;;;;18.96;54.69;97839.19;5050496;28;40281;-78
2021/10/03 06:15:32;;;;;;;1.20;1.07;;;;;;;18.97;54.30;97829.28;5033349;28;40859;-79
2021/10/03 06:18:00;;;;;;;1.53;1.23;;;;;;;18.89;54.18;97811.38;5033097;28;41585;-77
2021/10/03 06:20:28;;;;;;;1.70;1.50;;;;;;;18.99;54.24;97840.69;5050825;28;42312;-79
2021/10/03 06:22:56;;;;;;;1.83;1.43;;;;;;;19.05;54.27;97841.81;5032733;28;40106;-79
2021/10/03 06:25:23;;;;;;;1.83;1.60;;;;;;;19.08;54.27;97841.47;5019732;28;41247;-77
2021/10/03 06:27:51;;;;;;;1.30;1.20;;;;;;;19.10;53.91;97839.47;5038896;28;43033;-79
2021/10/03 06:30:21;;;;;;;1.90;1.33;;;;;;;19.00;53.85;97812.84;5029228;28;42349;-80
2021/10/03 06:32:48;;;;;;;1.87;1.47;;;;;;;19.13;53.26;97833.75;5029134;28;39000;-78
2021/10/03 06:35:16;;;;;;;2.17;1.83;;;;;;;19.12;53.22;97826.72;4994153;28;40550;-78
2021/10/03 06:37:44;;;;;;;2.00;1.50;;;;;;;19.13;52.69;97839.13;5020545;28;42100;-79
2021/10/03 06:40:12;;;;;;;1.90;1.33;;;;;;;19.13;52.95;97829.22;5025036;28;41615;-78
2021/10/03 06:42:40;;;;;;;1.13;1.07;;;;;;;19.13;52.64;97828.38;5047552;28;39098;-80
2021/10/03 06:45:08;;;;;;;1.23;1.07;;;;;;;19.14;53.04;97835.44;5043735;28;42665;-81
2021/10/03 06:47:37;;;;;;;1.63;1.47;;;;;;;19.15;52.77;97837.09;5048658;28;42840;-79
2021/10/03 06:50:07;;;;;;;1.57;1.30;;;;;;;19.18;52.38;97836.72;5049313;28;42236;-77
2021/10/03 06:52:34;;;;;;;1.87;1.70;;;;;;;19.16;52.18;97822.69;5049148;28;39790;-79
2021/10/03 06:55:02;;;;;;;2.13;1.40;;;;;;;19.18;52.47;97826.84;5049974;28;41772;-79
2021/10/03 06:57:29;;;;;;;1.40;1.20;;;;;;;19.20;52.09;97832.03;5048690;28;42660;-78
2021/10/03 06:59:57;;;;;;;1.47;1.20;;;;;;;19.20;51.92;97835.56;5043362;28;42421;-81
2021/10/03 07:02:27;;;;;;;1.70;1.40;;;;;;;19.20;51.66;97826.66;5028187;28;38824;-79
2021/10/03 07:04:55;;;;;;;2.03;1.43;;;;;;;19.29;52.01;97830.97;5015444;28;41839;-81
2021/10/03 07:07:24;;;;;;;3.90;1.30;;;;;;;19.32;51.72;97830.63;5029376;28;41608;-79
2021/10/03 07:09:52;;;;;;;1.57;1.47;;;;;;;19.38;51.02;97846.06;5043923;28;41310;-80
2021/10/03 07:12:20;;;;;;;1.87;1.33;;;;;;;19.43;50.59;97851.72;5047546;28;40819;-78
2021/10/03 07:14:47;;;;;;;1.63;1.47;;;;;;;19.49;50.72;97850.22;5045631;28;42009;-77
2021/10/03 07:17:15;;;;;;;1.50;1.40;;;;;;;19.55;50.85;97842.28;5023404;28;41967;-77
2021/10/03 07:19:43;;;;;;;2.30;1.50;;;;;;;19.60;51.01;97863.25;5018444;28;40989;-78
2021/10/03 07:22:12;;;;;;;1.30;1.17;;;;;;;19.64;50.84;97860.03;5034105;28;39777;-78
2021/10/03 07:24:40;;;;;;;1.17;1.00;;;;;;;19.48;49.97;97835.09;5031902;28;40935;-79
2021/10/03 07:27:08;;;;;;;2.20;1.23;;;;;;;19.76;49.41;97867.69;5034227;28;43828;-78
2021/10/03 07:29:36;;;;;;;3.20;1.40;;;;;;;19.86;49.47;97870.97;5038099;28;42687;-81
2021/10/03 07:32:06;;;;;;;1.03;0.93;;;;;;;19.95;49.78;97869.88;5044821;28;39871;-79
2021/10/03 07:34:34;;;;;;;1.70;1.60;;;;;;;20.04;49.27;97887.63;5041070;28;41583;-81
2021/10/03 07:37:03;;;;;;;1.37;1.17;;;;;;;20.08;48.88;97892.47;5039216;28;42732;-81
2021/10/03 07:39:34;;;;;;;2.00;1.70;;;;;;;20.12;48.57;97892.13;5045193;28;42075;-80
2021/10/03 07:42:02;;;;;;;3.00;1.40;;;;;;;20.15;47.88;97889.91;5030436;28;38738;-79
2021/10/03 07:44:29;;;;;;;2.20;1.30;;;;;;;20.17;47.97;97876.28;5030235;28;42136;-80
2021/10/03 07:46:57;;;;;;;1.73;1.57;;;;;;;20.25;48.02;97887.81;5034634;28;43706;-79
2021/10/03 07:49:25;;;;;;;1.47;1.30;;;;;;;20.32;47.64;97891.44;5036687;28;42360;-80
2021/10/03 07:51:53;;;;;;;1.63;1.30;;;;;;;20.47;47.22;97915.72;5045149;28;38785;-78
2021/10/03 07:54:20;;;;;;;1.60;1.50;;;;;;;20.63;47.51;97922.81;5038466;28;40705;-82
2021/10/03 07:56:49;;;;;;;1.60;1.33;;;;;;;20.86;46.23;97904.78;5035099;28;42612;-78
2021/10/03 07:59:17;;;;;;;1.73;1.50;;;;;;;21.13;45.73;97923.00;5044043;28;41098;-77
2021/10/03 08:01:45;;;;;;;1.20;1.10;;;;;;;21.33;45.05;97927.84;5043039;28;40214;-81
2021/10/03 08:04:12;;;;;;;0.97;0.97;;;;;;;21.46;45.21;97901.91;5035043;28;42229;-78
2021/10/03 08:06:40;;;;;;;1.40;1.10;;;;;;;21.67;44.88;97920.00;5028922;28;41698;-79
2021/10/03 08:09:08;;;;;;;1.43;1.23;;;;;;;21.72;44.14;97917.56;5023669;28;41726;-79
2021/10/03 08:11:36;;;;;;;1.20;1.10;;;;;;;21.96;43.63;97935.28;5027849;28;39950;-79
2021/10/03 08:14:05;;;;;;;1.03;0.97;;;;;;;22.27;43.34;97916.13;5012630;28;41002;-83
2021/10/03 08:16:33;;;;;;;2.00;1.20;;;;;;;23.20;41.54;97942.03;5022576;28;43533;-77
2021/10/03 08:19:03;;;;;;;1.30;1.00;;;;;;;23.33;41.01;97938.59;5023457;28;41307;-79
2021/10/03 08:21:30;;;;;;;1.63;1.53;;;;;;;23.26;41.10;97931.25;5031256;28;40241;-81
2021/10/03 08:23:59;;;;;;;2.27;1.47;;;;;;;23.15;41.23;97942.63;5051036;28;40773;-81
2021/10/03 08:26:26;;;;;;;1.37;1.27;;;;;;;23.05;41.19;97942.13;5023070;28;42076;-80
2021/10/03 08:28:54;;;;;;;1.40;1.30;;;;;;;22.93;41.27;97939.16;5044347;28;42569;-77
2021/10/03 08:31:23;;;;;;;1.40;1.30;;;;;;;22.83;41.70;97938.66;5025075;28;38944;-77
2021/10/03 08:33:51;;;;;;;1.40;1.30;;;;;;;22.79;41.94;97941.94;5011447;28;40957;-78
2021/10/03 08:36:19;;;;;;;1.20;1.10;;;;;;;22.69;41.53;97927.91;5027116;28;42823;-80
2021/10/03 08:38:46;;;;;;;1.47;1.20;;;;;;;22.63;41.67;97931.38;5033483;28;42337;-79
2021/10/03 08:41:14;;;;;;;1.73;1.53;;;;;;;22.57;42.00;97931.16;5014899;28;39163;-77
2021/10/03 08:43:42;;;;;;;1.63;1.30;;;;;;;22.52;41.37;97927.34;5034921;28;41858;-81
2021/10/03 08:46:10;;;;;;;2.13;1.43;;;;;;;22.49;41.68;97925.91;5027253;28;41760;-78
2021/10/03 08:48:39;;;;;;;1.30;1.13;;;;;;;22.55;41.73;97940.47;5006089;28;41884;-79
2021/10/03 08:51:07;;;;;;;1.60;1.20;;;;;;;22.71;42.00;97947.44;5006855;28;39787;-78
2021/10/03 08:53:35;;;;;;;1.20;1.10;;;;;;;22.75;41.52;97956.84;5029898;28;41966;-78
2021/10/03 08:56:03;;;;;;;1.23;1.13;;;;;;;22.73;41.72;97937.31;5032282;28;41726;-78
2021/10/03 08:58:31;;;;;;;1.80;1.10;;;;;;;22.75;41.42;97954.16;5035644;28;42048;-79
2021/10/03 09:00:58;;;;;;;1.23;1.03;;;;;;;22.71;41.51;97952.84;5047588;28;39978;-79
2021/10/03 09:03:27;;;;;;;1.27;1.17;;;;;;;22.56;40.81;97937.56;5030454;28;40628;-78
2021/10/03 09:05:57;;;;;;;1.20;1.10;;;;;;;22.67;41.73;97940.75;5046271;28;44074;-78
2021/10/03 09:08:26;;;;;;;1.20;1.10;;;;;;;22.63;41.87;97942.16;5046961;28;41378;-77
2021/10/03 09:10:57;;;;;;;1.50;1.10;;;;;;;22.66;41.65;97944.50;5047773;28;40225;-80
2021/10/03 09:13:43;;;;;;;1.40;1.30;;;;;;;22.65;41.66;97940.13;5016777;28;41118;-79
2021/10/03 09:16:12;;;;;;;1.50;1.20;;;;;;;22.55;42.20;97919.69;5026921;28;43636;-78
2021/10/03 09:18:45;;;;;;;0.87;0.87;;;;;;;22.61;41.80;97938.88;5010148;28;41732;-79
2021/10/03 09:21:33;;;;;;;1.83;1.07;;;;;;;22.59;42.23;97939.06;5060041;28;40824;-79
2021/10/03 09:24:02;;;;;;;1.10;1.00;;;;;;;22.56;42.38;97918.69;5035945;28;42486;-79
2021/10/03 09:26:32;;;;;;;1.07;0.97;;;;;;;22.72;42.60;97924.84;5045008;28;42693;-80
2021/10/03 09:29:00;;;;;;;1.50;1.40;;;;;;;22.77;42.71;97930.50;5045155;28;41247;-77
2021/10/03 09:31:28;;;;;;;1.17;1.07;;;;;;;22.75;42.34;97919.84;5043013;28;39137;-81
2021/10/03 09:33:57;;;;;;;1.33;1.00;;;;;;;22.65;43.14;97903.16;5028290;28;42527;-79
2021/10/03 09:36:29;;;;;;;1.10;1.00;;;;;;;22.67;42.31;97916.47;5024219;28;41921;-80
2021/10/03 09:38:59;;;;;;;1.50;1.20;;;;;;;22.76;42.79;97931.53;5026583;28;42582;-78
2021/10/03 09:41:29;;;;;;;1.33;0.97;;;;;;;22.87;42.63;97928.31;5020936;28;40814;-78
2021/10/03 09:43:58;;;;;;;0.80;0.80;;;;;;;22.95;42.36;97936.25;5038050;28;40998;-79
2021/10/03 09:46:34;;;;;;;1.10;1.00;;;;;;;23.02;42.86;97923.63;5027406;28;42170;-78
2021/10/03 09:49:05;;;;;;;2.20;1.10;;;;;;;23.07;42.49;97936.53;5026751;28;41495;-78
2021/10/03 09:51:34;;;;;;;1.30;1.20;;;;;;;23.15;42.64;97974.19;5034470;28;38805;-79
2021/10/03 09:54:03;;;;;;;1.20;1.10;;;;;;;23.23;43.05;97972.19;5035543;28;40505;-79
2021/10/03 09:56:33;;;;;;;0.90;0.90;;;;;;;23.33;42.99;97968.31;5048887;28;42823;-80
2021/10/03 09:59:02;;;;;;;1.43;1.33;;;;;;;23.37;42.93;97954.19;5032763;28;42192;-81
2021/10/03 10:01:31;;;;;;;1.10;0.97;;;;;;;23.35;44.03;97947.34;5041440;28;40754;-80
2021/10/03 10:04:00;;;;;;;0.90;0.90;;;;;;;23.48;43.40;97974.44;5041294;28;41769;-80
2021/10/03 10:06:27;;;;;;;1.67;0.93;;;;;;;23.51;43.31;97958.66;5044046;28;43657;-79
2021/10/03 10:08:58;;;;;;;1.20;1.10;;;;;;;23.56;43.17;97947.25;5049723;28;41516;-78
2021/10/03 10:11:34;;;;;;;1.77;1.67;;;;;;;23.69;43.52;97923.00;5050169;28;40300;-78
2021/10/03 10:14:04;;;;;;;1.37;1.10;;;;;;;23.82;42.39;97931.16;5039189;28;42582;-80
2021/10/03 10:16:35;;;;;;;0.90;0.90;;;;;;;23.89;41.19;97934.72;5042889;28;42821;-80
2021/10/03 10:19:34;;;;;;;1.13;1.03;;;;;;;24.16;40.81;97942.91;5050632;28;43260;-79
2021/10/03 10:22:37;;;;;;;1.40;1.30;;;;;;;24.44;40.91;97932.81;5044825;28;41041;-79
2021/10/03 10:25:20;;;;;;;1.30;1.00;;;;;;;24.64;41.29;97925.53;5045681;28;42145;-81
2021/10/03 10:28:04;;;;;;;0.90;0.90;;;;;;;24.76;40.66;97919.47;5049432;28;43870;-82
2021/10/03 10:30:34;;;;;;;6.93;4.73;;;;;;;24.96;41.15;97939.31;5041261;28;42423;-79
2021/10/03 10:33:15;;;;;;;3.47;2.40;;;;;;;24.98;40.79;97931.78;5065601;28;40954;-80
2021/10/03 10:35:48;;;;;;;3.73;2.10;;;;;;;24.92;39.94;97943.44;5033002;28;40909;-79
2021/10/03 10:38:19;;;;;;;1.20;1.10;;;;;;;24.91;40.44;97944.47;5048579;28;43050;-78
2021/10/03 10:40:51;;;;;;;1.80;1.20;;;;;;;24.98;39.94;97921.78;5041176;28;43204;-79
2021/10/03 10:43:46;;;;;;;1.30;1.20;;;;;;;25.09;40.44;97938.47;5033781;28;38783;-78
2021/10/03 10:46:47;;;;;;;0.80;0.80;;;;;;;25.19;40.09;97936.16;5032428;28;40639;-77
2021/10/03 10:49:27;;;;;;;1.10;1.00;;;;;;;25.20;40.34;97945.97;5028014;28;42766;-80
2021/10/03 10:52:27;;;;;;;1.03;0.90;;;;;;;25.21;40.26;97956.59;5053023;28;41179;-80
2021/10/03 10:55:29;;;;;;;1.43;1.33;;;;;;;25.18;40.13;97943.44;5037986;28;39839;-80
2021/10/03 10:58:25;;;;;;;1.57;1.40;;;;;;;25.08;40.36;97929.50;5013732;28;40729;-78
2021/10/03 11:01:05;;;;;;;2.43;2.23;;;;;;;25.07;40.41;97927.84;5036761;28;42999;-78
2021/10/03 11:04:05;;;;;;;1.63;1.43;;;;;;;25.04;39.88;97939.09;5035699;28;42271;-77
2021/10/03 11:07:00;;;;;;;1.37;1.10;;;;;;;25.04;40.02;97928.25;5049358;28;40104;-79
2021/10/03 11:09:29;;;;;;;1.10;1.00;;;;;;;25.07;40.22;97911.59;5032939;28;42594;-79
2021/10/03 11:11:59;;;;;;;0.97;0.93;;;;;;;25.13;39.50;97937.81;5035785;28;42961;-80
2021/10/03 11:14:29;;;;;;;1.40;1.00;;;;;;;25.15;39.47;97933.03;5035652;28;42965;-79
2021/10/03 11:17:03;;;;;;;1.53;1.07;;;;;;;25.22;39.97;97920.28;5051392;28;39703;-80
2021/10/03 11:19:37;;;;;;;1.10;1.03;;;;;;;25.25;38.89;97909.03;5029567;28;41797;-80
2021/10/03 11:22:07;;;;;;;1.00;0.90;;;;;;;25.25;39.05;97900.91;5046176;28;42570;-80
2021/10/03 11:24:37;;;;;;;1.30;1.20;;;;;;;25.24;38.82;97910.06;5028047;28;41502;-81
2021/10/03 11:27:07;;;;;;;1.50;1.40;;;;;;;25.18;39.48;97883.00;5039704;28;41074;-79
2021/10/03 11:29:37;;;;;;;1.10;0.90;;;;;;;25.21;39.59;97883.44;5024179;28;41909;-80
2021/10/03 11:32:07;;;;;;;1.20;1.10;;;;;;;25.29;40.41;97895.91;5015296;28;42936;-79
2021/10/03 11:34:38;;;;;;;1.00;1.00;;;;;;;25.27;40.92;97887.97;5033641;28;41719;-79
2021/10/03 11:37:08;;;;;;;2.20;0.90;;;;;;;25.26;41.07;97886.31;5041477;28;39984;-81
2021/10/03 11:39:49;;;;;;;1.07;0.90;;;;;;;25.26;40.27;97883.59;5044098;28;40698;-81
2021/10/03 11:42:19;;;;;;;1.03;0.90;;;;;;;25.28;40.61;97869.84;5045049;28;41614;-79
2021/10/03 11:44:48;;;;;;;1.43;1.23;;;;;;;25.23;40.77;97859.63;5040818;28;45141;-80
2021/10/03 11:47:18;;;;;;;1.47;1.37;;;;;;;25.42;40.38;97866.03;5013205;28;39692;-79